createdAt,value
2023-03-27T00:01:13.353Z,1.85
2023-03-27T00:03:41.514Z,3.17
2023-03-27T00:06:12.002Z,3.58
2023-03-27T00:08:39.542Z,4.55
2023-03-27T00:11:08.302Z,3.83
2023-03-27T00:13:49.059Z,6.25
2023-03-27T00:16:23.530Z,3.65
2023-03-27T00:18:51.666Z,4.95
2023-03-27T00:21:19.531Z,3.78
2023-03-27T00:23:47.132Z,3.20
2023-03-27T00:26:15.509Z,4.55
2023-03-27T00:28:43.230Z,2.65
2023-03-27T00:31:12.635Z,4.40
2023-03-27T00:33:41.295Z,5.88
2023-03-27T00:36:10.236Z,7.03
2023-03-27T00:38:39.985Z,13.93
2023-03-27T00:41:08.873Z,11.18
2023-03-27T00:43:42.739Z,15.30
2023-03-27T00:46:25.605Z,14.10
2023-03-27T00:48:55.409Z,10.32
2023-03-27T00:51:24.800Z,6.50
2023-03-27T00:53:53.569Z,8.23
2023-03-27T00:56:21.982Z,8.73
2023-03-27T00:58:57.412Z,9.93
2023-03-27T01:01:27.894Z,11.50
2023-03-27T01:03:58.611Z,11.18
2023-03-27T01:06:27.298Z,10.15
2023-03-27T01:08:54.875Z,14.70
2023-03-27T01:11:35.891Z,10.20
2023-03-27T01:14:29.317Z,12.45
2023-03-27T01:17:32.556Z,13.88
2023-03-27T01:20:18.317Z,9.25
2023-03-27T01:23:10.416Z,9.50
2023-03-27T01:26:03.043Z,9.88
2023-03-27T01:28:41.186Z,7.45
2023-03-27T01:34:01.720Z,4.78
2023-03-27T01:37:10.544Z,8.75
2023-03-27T01:39:50.903Z,11.10
2023-03-27T01:42:22.154Z,16.70
2023-03-27T01:45:13.113Z,16.80
2023-03-27T01:47:47.049Z,13.15
2023-03-27T01:50:31.895Z,10.15
2023-03-27T01:53:07.607Z,13.07
2023-03-27T01:55:38.581Z,11.77
2023-03-27T01:58:16.993Z,7.72
2023-03-27T02:00:53.267Z,10.52
2023-03-27T02:03:27.376Z,8.70
2023-03-27T02:06:24.077Z,7.10
2023-03-27T02:09:07.123Z,6.32
2023-03-27T02:11:41.601Z,8.95
2023-03-27T02:14:15.631Z,9.75
2023-03-27T02:16:48.823Z,4.97
2023-03-27T02:19:42.227Z,4.72
2023-03-27T02:22:10.027Z,5.75
2023-03-27T02:24:46.688Z,7.40
2023-03-27T02:27:39.602Z,5.65
2023-03-27T02:30:42.590Z,5.97
2023-03-27T02:33:38.007Z,4.57
2023-03-27T02:36:41.735Z,4.18
2023-03-27T02:39:33.826Z,7.40
2023-03-27T02:42:35.736Z,5.85
2023-03-27T02:45:28.450Z,10.10
2023-03-27T02:48:09.084Z,8.60
2023-03-27T02:50:44.216Z,7.43
2023-03-27T02:53:19.099Z,7.43
2023-03-27T02:55:51.789Z,9.95
2023-03-27T02:58:27.133Z,6.95
2023-03-27T03:01:04.043Z,8.32
2023-03-27T03:03:59.001Z,6.85
2023-03-27T03:06:47.210Z,5.32
2023-03-27T03:09:16.564Z,8.07
2023-03-27T03:11:52.947Z,7.88
2023-03-27T03:14:28.173Z,5.72
2023-03-27T03:16:56.201Z,8.35
2023-03-27T03:19:24.159Z,9.07
2023-03-27T03:21:51.752Z,8.00
2023-03-27T03:24:21.945Z,5.93
2023-03-27T03:26:52.827Z,8.32
2023-03-27T03:29:20.479Z,5.70
2023-03-27T03:32:08.295Z,6.20
2023-03-27T03:34:37.003Z,13.35
2023-03-27T03:37:04.583Z,7.82
2023-03-27T03:39:32.176Z,5.93
2023-03-27T03:44:27.187Z,14.15
2023-03-27T03:46:56.015Z,9.73
2023-03-27T03:49:23.661Z,6.80
2023-03-27T03:52:03.798Z,8.05
2023-03-27T03:54:33.175Z,7.43
2023-03-27T03:57:00.889Z,10.55
2023-03-27T03:59:28.938Z,11.35
2023-03-27T04:02:28.331Z,18.27
2023-03-27T04:05:00.980Z,7.05
2023-03-27T04:07:36.818Z,6.13
2023-03-27T04:10:19.023Z,7.10
2023-03-27T04:12:48.657Z,7.22
2023-03-27T04:15:23.167Z,11.60
2023-03-27T04:18:11.327Z,8.15
2023-03-27T04:20:41.260Z,8.90
2023-03-27T04:23:11.977Z,8.10
2023-03-27T04:25:41.222Z,9.68
2023-03-27T04:28:16.910Z,8.05
2023-03-27T04:30:50.630Z,8.70
2023-03-27T04:33:39.545Z,8.73
2023-03-27T04:36:36.580Z,7.95
2023-03-27T04:39:10.641Z,9.15
2023-03-27T04:41:38.875Z,8.50
2023-03-27T04:44:07.829Z,11.95
2023-03-27T04:46:39.791Z,10.15
2023-03-27T04:49:11.254Z,7.45
2023-03-27T04:51:51.672Z,12.15
2023-03-27T04:54:22.909Z,7.00
2023-03-27T04:56:50.966Z,11.55
2023-03-27T04:59:18.697Z,9.50
2023-03-27T05:01:57.618Z,13.05
2023-03-27T05:04:49.644Z,7.50
2023-03-27T05:07:20.695Z,6.15
2023-03-27T05:09:48.752Z,8.43
2023-03-27T05:12:16.655Z,8.65
2023-03-27T05:14:53.681Z,9.02
2023-03-27T05:17:41.910Z,12.20
2023-03-27T05:20:22.369Z,10.85
2023-03-27T05:22:53.818Z,8.73
2023-03-27T05:25:26.425Z,11.82
2023-03-27T05:27:55.309Z,11.50
2023-03-27T05:30:27.098Z,11.68
2023-03-27T05:33:10.215Z,11.20
2023-03-27T05:35:42.111Z,13.82
2023-03-27T05:38:09.953Z,8.30
2023-03-27T05:40:43.175Z,13.80
2023-03-27T05:43:15.597Z,16.05
2023-03-27T05:45:43.265Z,11.65
2023-03-27T05:48:11.243Z,13.15
2023-03-27T05:50:42.380Z,13.77
2023-03-27T05:56:03.043Z,6.05
2023-03-27T05:58:38.923Z,8.77
2023-03-27T06:01:06.531Z,13.88
2023-03-27T06:03:38.764Z,10.73
2023-03-27T06:06:13.697Z,10.70
2023-03-27T06:08:44.133Z,9.40
2023-03-27T06:11:13.906Z,12.35
2023-03-27T06:13:45.597Z,9.70
2023-03-27T06:16:20.745Z,11.20
2023-03-27T06:19:07.490Z,9.98
2023-03-27T06:21:44.767Z,8.38
2023-03-27T06:24:12.441Z,11.68
2023-03-27T06:26:41.299Z,9.95
2023-03-27T06:29:10.750Z,11.85
2023-03-27T06:31:46.020Z,14.13
2023-03-27T06:34:19.260Z,17.40
2023-03-27T06:36:52.306Z,13.40
2023-03-27T06:39:20.650Z,11.60
2023-03-27T06:41:50.793Z,13.45
2023-03-27T06:44:29.149Z,13.40
2023-03-27T06:47:07.404Z,8.80
2023-03-27T06:49:57.928Z,8.90
2023-03-27T06:52:25.786Z,9.52
2023-03-27T06:54:59.087Z,9.95
2023-03-27T06:57:26.598Z,10.85
2023-03-27T07:00:01.655Z,7.53
2023-03-27T07:02:54.168Z,9.93
2023-03-27T07:05:51.118Z,13.88
2023-03-27T07:08:24.942Z,10.75
2023-03-27T07:11:10.961Z,9.18
2023-03-27T07:13:44.077Z,9.40
2023-03-27T07:16:21.424Z,10.40
2023-03-27T07:18:49.089Z,10.75
2023-03-27T07:21:16.855Z,11.95
2023-03-27T07:23:45.761Z,12.18
2023-03-27T07:26:17.191Z,10.27
2023-03-27T07:28:58.039Z,11.73
2023-03-27T07:31:40.174Z,9.63
2023-03-27T07:34:15.918Z,12.73
2023-03-27T07:37:18.413Z,16.02
2023-03-27T07:40:06.985Z,11.27
2023-03-27T07:42:35.591Z,13.93
2023-03-27T07:45:06.374Z,12.43
2023-03-27T07:47:34.090Z,9.45
2023-03-27T07:50:02.774Z,12.25
2023-03-27T07:52:30.346Z,14.15
2023-03-27T07:55:00.945Z,13.82
2023-03-27T07:57:58.104Z,11.82
2023-03-27T08:00:27.949Z,13.23
2023-03-27T08:03:08.464Z,9.88
2023-03-27T08:05:38.497Z,12.35
2023-03-27T08:08:11.044Z,13.38
2023-03-27T08:10:59.436Z,12.18
2023-03-27T08:13:31.594Z,9.73
2023-03-27T08:16:14.572Z,7.65
2023-03-27T08:18:43.729Z,10.15
2023-03-27T08:21:12.704Z,16.38
2023-03-27T08:23:41.202Z,6.40
2023-03-27T08:26:09.124Z,11.25
2023-03-27T08:28:45.088Z,5.13
2023-03-27T08:31:15.568Z,9.98
2023-03-27T08:33:44.994Z,7.93
2023-03-27T08:36:20.220Z,5.65
2023-03-27T08:38:48.222Z,6.32
2023-03-27T08:41:38.585Z,7.82
2023-03-27T08:44:26.658Z,7.07
2023-03-27T08:46:57.572Z,6.63
2023-03-27T08:49:34.018Z,6.93
2023-03-27T08:52:26.019Z,6.22
2023-03-27T08:55:01.156Z,8.05
2023-03-27T08:57:37.846Z,5.05
2023-03-27T09:00:23.770Z,6.53
2023-03-27T09:03:08.535Z,4.03
2023-03-27T09:05:42.794Z,5.75
2023-03-27T09:08:27.003Z,5.82
2023-03-27T09:11:16.070Z,5.07
2023-03-27T09:13:52.614Z,5.80
2023-03-27T09:16:49.338Z,5.35
2023-03-27T09:19:49.790Z,3.97
2023-03-27T09:22:27.611Z,7.50
2023-03-27T09:25:36.337Z,7.20
2023-03-27T09:28:37.408Z,7.30
2023-03-27T09:31:30.574Z,3.03
2023-03-27T09:34:07.164Z,6.90
2023-03-27T09:36:36.176Z,5.03
2023-03-27T09:39:08.138Z,2.55
2023-03-27T09:41:46.568Z,2.50
2023-03-27T09:44:18.003Z,5.43
2023-03-27T09:46:50.714Z,4.22
2023-03-27T09:49:21.084Z,5.55
2023-03-27T09:51:56.930Z,3.03
2023-03-27T09:54:52.885Z,3.35
2023-03-27T09:57:32.332Z,5.90
2023-03-27T10:00:25.126Z,5.68
2023-03-27T10:03:03.934Z,6.97
2023-03-27T10:05:32.969Z,2.47
2023-03-27T10:08:01.647Z,2.88
2023-03-27T10:10:56.446Z,5.15
2023-03-27T10:13:46.852Z,2.78
2023-03-27T10:16:21.386Z,3.13
2023-03-27T10:19:01.243Z,5.32
2023-03-27T10:21:38.604Z,3.45
2023-03-27T10:24:18.031Z,4.07
2023-03-27T10:27:21.913Z,7.78
2023-03-27T10:30:33.221Z,6.20
2023-03-27T10:33:36.772Z,3.08
2023-03-27T10:36:37.259Z,2.38
2023-03-27T10:39:14.153Z,3.15
2023-03-27T10:42:06.250Z,3.83
2023-03-27T10:44:37.845Z,6.40
2023-03-27T10:47:16.902Z,1.20
2023-03-27T10:49:53.023Z,4.88
2023-03-27T10:52:43.773Z,2.50
2023-03-27T10:56:06.033Z,3.33
2023-03-27T10:58:44.578Z,3.75
2023-03-27T11:01:19.075Z,3.45
2023-03-27T11:04:14.273Z,2.28
2023-03-27T11:06:50.993Z,4.55
2023-03-27T11:09:47.165Z,4.97
2023-03-27T11:12:14.762Z,3.22
2023-03-27T11:15:33.829Z,6.07
2023-03-27T11:18:10.582Z,6.40
2023-03-27T11:20:59.616Z,7.30
2023-03-27T11:23:44.844Z,6.47
2023-03-27T11:26:32.924Z,4.55
2023-03-27T11:29:14.034Z,4.55
2023-03-27T11:31:52.050Z,7.88
2023-03-27T11:34:44.951Z,4.18
2023-03-27T11:37:47.036Z,4.03
2023-03-27T11:40:24.009Z,3.97
2023-03-27T11:42:58.844Z,3.92
2023-03-27T11:45:31.270Z,7.30
2023-03-27T11:48:35.690Z,3.72
2023-03-27T11:51:22.252Z,4.40
2023-03-27T11:53:55.378Z,3.70
2023-03-27T11:56:58.191Z,5.10
2023-03-27T12:00:05.520Z,3.70
2023-03-27T12:03:07.795Z,4.68
2023-03-27T12:06:05.612Z,5.65
2023-03-27T12:08:55.673Z,5.40
2023-03-27T12:11:25.956Z,4.32
2023-03-27T12:14:18.610Z,8.18
2023-03-27T12:17:28.408Z,4.88
2023-03-27T12:20:16.774Z,5.25
2023-03-27T12:22:59.976Z,3.90
2023-03-27T12:26:02.907Z,4.85
2023-03-27T12:29:23.603Z,4.13
2023-03-27T12:32:10.787Z,3.78
2023-03-27T12:34:59.208Z,4.00
2023-03-27T12:37:43.697Z,6.63
2023-03-27T12:40:32.094Z,5.28
2023-03-27T12:43:22.177Z,6.05
2023-03-27T12:46:31.178Z,4.65
2023-03-27T12:49:05.538Z,3.00
2023-03-27T12:52:04.333Z,4.50
2023-03-27T12:55:06.310Z,2.67
2023-03-27T12:58:01.921Z,2.63
2023-03-27T13:01:00.892Z,5.10
2023-03-27T13:04:07.399Z,3.88
2023-03-27T13:06:48.337Z,4.65
2023-03-27T13:09:53.033Z,3.45
2023-03-27T13:12:43.524Z,4.47
2023-03-27T13:15:23.700Z,2.10
2023-03-27T13:18:33.602Z,2.60
2023-03-27T13:21:26.156Z,6.13
2023-03-27T13:24:01.200Z,5.32
2023-03-27T13:26:41.867Z,3.92
2023-03-27T13:29:20.826Z,4.82
2023-03-27T13:31:58.021Z,2.33
2023-03-27T13:34:32.899Z,4.00
2023-03-27T13:37:11.281Z,6.95
2023-03-27T13:40:02.301Z,5.80
2023-03-27T13:42:51.207Z,4.72
2023-03-27T13:45:26.235Z,2.40
2023-03-27T13:48:50.562Z,3.75
2023-03-27T13:51:41.762Z,3.85
2023-03-27T13:54:23.037Z,3.90
2023-03-27T13:57:00.170Z,6.55
2023-03-27T13:59:46.214Z,6.35
2023-03-27T14:02:59.729Z,3.22
2023-03-27T14:06:10.933Z,6.43
2023-03-27T14:09:16.554Z,2.05
2023-03-27T14:12:38.956Z,3.35
2023-03-27T14:15:16.588Z,5.88
2023-03-27T14:17:52.195Z,1.98
2023-03-27T14:20:27.459Z,4.43
2023-03-27T14:23:06.670Z,5.32
2023-03-27T14:26:03.726Z,4.65
2023-03-27T14:28:59.186Z,3.70
2023-03-27T14:31:36.012Z,5.22
2023-03-27T14:34:53.341Z,2.75
2023-03-27T14:38:24.955Z,4.53
2023-03-27T14:40:59.064Z,2.80
2023-03-27T14:43:54.089Z,6.13
2023-03-27T14:46:24.307Z,2.20
2023-03-27T14:48:58.184Z,2.10
2023-03-27T14:51:37.256Z,2.20
2023-03-27T14:54:26.778Z,2.80
2023-03-27T14:57:00.881Z,2.53
2023-03-27T14:59:39.018Z,3.65
2023-03-27T15:02:34.934Z,3.70
2023-03-27T15:05:18.637Z,3.63
2023-03-27T15:07:51.978Z,4.90
2023-03-27T15:10:39.944Z,4.18
2023-03-27T15:13:10.448Z,3.10
2023-03-27T15:15:44.401Z,3.42
2023-03-27T15:18:33.356Z,2.58
2023-03-27T15:21:06.885Z,2.65
2023-03-27T15:24:10.465Z,6.55
2023-03-27T15:26:40.396Z,2.33
2023-03-27T15:29:42.806Z,3.55
2023-03-27T15:32:18.684Z,5.45
2023-03-27T15:34:51.240Z,4.30
2023-03-27T15:37:23.425Z,2.00
2023-03-27T15:40:15.729Z,1.92
2023-03-27T15:42:52.171Z,2.92
2023-03-27T15:45:34.302Z,5.55
2023-03-27T15:48:06.878Z,6.00
2023-03-27T15:50:34.824Z,5.57
2023-03-27T15:53:02.476Z,2.53
2023-03-27T15:55:29.950Z,3.97
2023-03-27T15:57:58.750Z,6.03
2023-03-27T16:00:28.750Z,3.85
2023-03-27T16:02:56.795Z,6.05
2023-03-27T16:05:24.575Z,4.20
2023-03-27T16:07:52.514Z,4.35
2023-03-27T16:10:32.850Z,3.78
2023-03-27T16:13:04.213Z,3.45
2023-03-27T16:15:37.326Z,4.72
2023-03-27T16:18:33.179Z,4.88
2023-03-27T16:21:13.518Z,7.43
2023-03-27T16:23:41.933Z,5.63
2023-03-27T16:26:14.873Z,2.67
2023-03-27T16:28:43.011Z,8.35
2023-03-27T16:31:16.661Z,4.55
2023-03-27T16:33:45.885Z,8.25
2023-03-27T16:36:28.517Z,6.65
2023-03-27T16:38:56.056Z,5.00
2023-03-27T16:41:23.825Z,2.83
2023-03-27T16:43:51.352Z,6.40
2023-03-27T16:46:25.003Z,3.28
2023-03-27T16:48:53.607Z,3.75
2023-03-27T16:51:22.802Z,4.28
2023-03-27T16:53:50.779Z,3.47
2023-03-27T16:56:18.232Z,2.05
2023-03-27T16:58:47.022Z,4.90
2023-03-27T17:01:14.602Z,3.35
2023-03-27T17:03:42.368Z,4.93
2023-03-27T17:06:11.589Z,4.22
2023-03-27T17:08:39.029Z,2.75
2023-03-27T17:11:11.231Z,2.22
2023-03-27T17:13:43.093Z,3.05
2023-03-27T17:16:11.680Z,3.28
2023-03-27T17:18:40.954Z,2.95
2023-03-27T17:21:09.085Z,3.65
2023-03-27T17:23:36.632Z,2.53
2023-03-27T17:26:04.964Z,2.42
2023-03-27T17:28:32.616Z,4.25
2023-03-27T17:31:05.108Z,3.58
2023-03-27T17:33:34.198Z,4.32
2023-03-27T17:36:07.828Z,5.18
2023-03-27T17:38:35.693Z,1.88
2023-03-27T17:41:04.054Z,4.65
2023-03-27T17:43:31.509Z,2.70
2023-03-27T17:45:59.398Z,6.07
2023-03-27T17:48:27.054Z,5.10
2023-03-27T17:51:07.305Z,3.35
2023-03-27T17:53:38.510Z,6.93
2023-03-27T17:56:06.589Z,4.78
2023-03-27T17:58:34.561Z,3.90
2023-03-27T18:01:13.174Z,5.25
2023-03-27T18:03:41.028Z,3.83
2023-03-27T18:06:08.828Z,5.18
2023-03-27T18:08:36.787Z,5.95
2023-03-27T18:11:09.305Z,3.97
2023-03-27T18:13:37.581Z,4.68
2023-03-27T18:16:08.612Z,6.15
2023-03-27T18:18:39.734Z,7.22
2023-03-27T18:21:08.906Z,5.95
2023-03-27T18:23:45.725Z,3.38
2023-03-27T18:26:15.596Z,3.42
2023-03-27T18:28:43.726Z,6.30
2023-03-27T18:31:12.704Z,5.15
2023-03-27T18:33:40.755Z,4.95
2023-03-27T18:36:12.225Z,2.28
2023-03-27T18:38:42.085Z,3.88
2023-03-27T18:41:10.790Z,6.40
2023-03-27T18:43:38.413Z,4.47
2023-03-27T18:46:07.616Z,6.28
2023-03-27T18:48:35.870Z,5.50
2023-03-27T18:51:06.257Z,4.13
2023-03-27T18:53:33.858Z,5.35
2023-03-27T18:56:02.034Z,8.73
2023-03-27T18:58:30.465Z,5.70
2023-03-27T19:00:58.451Z,7.53
2023-03-27T19:03:30.536Z,5.82
2023-03-27T19:06:02.406Z,3.85
2023-03-27T19:08:30.948Z,5.78
2023-03-27T19:10:58.740Z,3.58
2023-03-27T19:13:45.145Z,3.55
2023-03-27T19:16:25.603Z,4.82
2023-03-27T19:19:16.508Z,9.05
2023-03-27T19:22:08.540Z,4.25
2023-03-27T19:24:40.818Z,4.97
2023-03-27T19:27:23.527Z,5.00
2023-03-27T19:29:53.030Z,4.75
2023-03-27T19:32:21.657Z,3.72
2023-03-27T19:34:49.247Z,3.80
2023-03-27T19:37:17.143Z,4.25
2023-03-27T19:39:44.781Z,2.53
2023-03-27T19:42:12.664Z,5.38
2023-03-27T19:44:40.328Z,6.22
2023-03-27T19:47:09.774Z,6.78
2023-03-27T19:49:37.552Z,4.95
2023-03-27T19:52:26.375Z,5.68
2023-03-27T19:54:54.273Z,7.38
2023-03-27T19:57:24.270Z,3.63
2023-03-27T19:59:51.900Z,4.18
2023-03-27T20:02:19.314Z,4.65
2023-03-27T20:04:49.398Z,6.28
2023-03-27T20:07:17.085Z,6.53
2023-03-27T20:09:44.769Z,6.13
2023-03-27T20:12:12.589Z,7.55
2023-03-27T20:14:40.365Z,3.63
2023-03-27T20:17:12.311Z,5.03
2023-03-27T20:19:51.024Z,8.98
2023-03-27T20:22:20.970Z,5.35
2023-03-27T20:24:49.489Z,3.92
2023-03-27T20:27:19.910Z,4.53
2023-03-27T20:29:48.064Z,6.50
2023-03-27T20:32:15.544Z,5.68
2023-03-27T20:34:43.017Z,5.63
2023-03-27T20:37:12.162Z,6.28
2023-03-27T20:40:02.000Z,8.50
2023-03-27T20:42:29.583Z,4.78
2023-03-27T20:47:26.128Z,7.00
2023-03-27T20:49:53.594Z,3.67
2023-03-27T20:52:22.840Z,6.60
2023-03-27T20:54:50.888Z,5.28
2023-03-27T20:57:21.887Z,4.05
2023-03-27T20:59:49.381Z,4.60
2023-03-27T21:02:19.306Z,6.57
2023-03-27T21:04:47.957Z,5.78
2023-03-27T21:07:16.214Z,4.55
2023-03-27T21:09:46.412Z,5.55
2023-03-27T21:12:13.879Z,5.70
2023-03-27T21:17:11.858Z,4.60
2023-03-27T21:19:39.418Z,6.38
2023-03-27T21:22:07.040Z,3.83
2023-03-27T21:24:34.498Z,4.60
2023-03-27T21:27:02.047Z,4.97
2023-03-27T21:29:29.437Z,7.47
2023-03-27T21:34:24.581Z,2.72
2023-03-27T21:36:52.217Z,5.80
2023-03-27T21:39:19.889Z,3.40
2023-03-27T21:41:47.349Z,6.18
2023-03-27T21:46:42.632Z,5.03
2023-03-27T21:49:10.351Z,5.60
2023-03-27T21:51:37.988Z,5.70
2023-03-27T21:54:05.536Z,3.55
2023-03-27T21:56:33.200Z,5.93
2023-03-27T21:59:00.666Z,5.90
2023-03-27T22:01:28.337Z,3.75
2023-03-27T22:04:02.127Z,4.43
2023-03-27T22:06:30.052Z,2.47
2023-03-27T22:08:57.628Z,4.55
2023-03-27T22:11:25.118Z,6.57
2023-03-27T22:13:52.766Z,3.40
2023-03-27T22:16:20.606Z,4.63
2023-03-27T22:18:48.187Z,5.40
2023-03-27T22:21:22.338Z,4.00
2023-03-27T22:23:53.143Z,3.83
2023-03-27T22:26:23.473Z,9.60
2023-03-27T22:28:52.759Z,8.90
2023-03-27T22:31:21.807Z,3.53
2023-03-27T22:33:50.503Z,5.88
2023-03-27T22:36:19.181Z,6.07
2023-03-27T22:38:46.886Z,5.50
2023-03-27T22:41:14.997Z,6.78
2023-03-27T22:43:42.792Z,4.53
2023-03-27T22:46:16.021Z,7.03
2023-03-27T22:48:43.982Z,5.53
2023-03-27T22:51:13.232Z,7.13
2023-03-27T22:53:41.407Z,4.22
2023-03-27T22:56:09.343Z,4.82
2023-03-27T22:58:36.871Z,6.38
2023-03-27T23:03:32.838Z,5.40
2023-03-27T23:06:00.742Z,4.63
2023-03-27T23:08:29.050Z,5.40
2023-03-27T23:11:02.066Z,5.50
2023-03-27T23:13:32.080Z,4.13
2023-03-27T23:16:00.500Z,6.00
2023-03-27T23:18:28.175Z,4.13
2023-03-27T23:20:56.739Z,6.20
2023-03-27T23:23:25.581Z,4.85
2023-03-27T23:25:53.879Z,5.35
2023-03-27T23:28:22.059Z,2.03
2023-03-27T23:30:53.871Z,2.65
2023-03-27T23:33:25.053Z,3.08
2023-03-27T23:35:54.352Z,4.10
2023-03-27T23:38:21.812Z,7.90
2023-03-27T23:40:54.992Z,6.03
2023-03-27T23:43:22.770Z,6.53
2023-03-27T23:45:50.444Z,4.80
2023-03-27T23:48:18.111Z,5.35
2023-03-27T23:50:46.191Z,5.53
2023-03-27T23:53:13.780Z,7.22
2023-03-27T23:55:41.283Z,7.38
2023-03-27T23:58:08.951Z,7.35
